createdAt,value
2019-01-26T00:02:11.377Z,18.97
2019-01-26T00:04:41.691Z,19.73
2019-01-26T00:07:11.899Z,19.33
2019-01-26T00:09:42.157Z,19.30
2019-01-26T00:12:12.539Z,17.70
2019-01-26T00:14:42.781Z,18.43
2019-01-26T00:17:13.430Z,18.87
2019-01-26T00:19:43.670Z,15.53
2019-01-26T00:22:14.355Z,18.60
2019-01-26T00:24:44.713Z,17.37
2019-01-26T00:27:14.907Z,17.77
2019-01-26T00:29:45.150Z,19.67
2019-01-26T00:32:15.585Z,19.63
2019-01-26T00:34:46.078Z,19.43
2019-01-26T00:37:16.341Z,19.40
2019-01-26T00:39:46.843Z,17.10
2019-01-26T00:42:17.033Z,17.17
2019-01-26T00:44:47.307Z,17.60
2019-01-26T00:47:17.851Z,16.77
2019-01-26T00:49:48.135Z,19.30
2019-01-26T00:52:18.367Z,17.87
2019-01-26T00:54:48.679Z,18.40
2019-01-26T00:57:19.241Z,17.33
2019-01-26T00:59:49.477Z,18.07
2019-01-26T01:02:19.737Z,17.33
2019-01-26T01:04:50.271Z,18.70
2019-01-26T01:07:20.505Z,19.10
2019-01-26T01:09:50.759Z,17.97
2019-01-26T01:12:20.965Z,17.90
2019-01-26T01:14:51.163Z,16.67
2019-01-26T01:17:21.805Z,17.70
2019-01-26T01:19:51.993Z,19.70
2019-01-26T01:22:22.311Z,18.93
2019-01-26T01:24:52.642Z,17.83
2019-01-26T01:27:22.857Z,16.90
2019-01-26T01:29:53.569Z,16.73
2019-01-26T01:32:23.847Z,16.60
2019-01-26T01:34:54.153Z,16.63
2019-01-26T01:37:24.860Z,15.53
2019-01-26T01:39:55.254Z,15.83
2019-01-26T01:42:25.913Z,15.67
2019-01-26T01:44:56.144Z,16.23
2019-01-26T01:47:26.428Z,15.07
2019-01-26T01:49:56.763Z,15.70
2019-01-26T01:52:26.986Z,16.67
2019-01-26T01:54:57.267Z,14.23
2019-01-26T01:57:27.517Z,13.13
2019-01-26T01:59:57.691Z,15.60
2019-01-26T02:02:27.978Z,16.00
2019-01-26T02:04:58.644Z,14.07
2019-01-26T02:07:29.255Z,15.40
2019-01-26T02:09:59.474Z,14.37
2019-01-26T02:12:29.702Z,14.73
2019-01-26T02:14:59.925Z,13.10
2019-01-26T02:17:30.145Z,15.23
2019-01-26T02:20:00.492Z,15.10
2019-01-26T02:22:30.824Z,16.33
2019-01-26T02:25:01.415Z,14.90
2019-01-26T02:27:32.224Z,13.73
2019-01-26T02:30:02.475Z,14.40
2019-01-26T02:32:33.188Z,13.37
2019-01-26T02:35:03.428Z,14.30
2019-01-26T02:37:34.075Z,14.23
2019-01-26T02:40:05.202Z,14.53
2019-01-26T02:42:35.750Z,14.63
2019-01-26T02:45:07.993Z,14.03
2019-01-26T02:47:38.488Z,14.10
2019-01-26T02:50:12.335Z,12.93
2019-01-26T02:52:43.017Z,12.77
2019-01-26T02:55:14.266Z,12.90
2019-01-26T02:57:44.466Z,13.20
2019-01-26T03:00:20.517Z,12.33
2019-01-26T03:02:51.152Z,13.50
2019-01-26T03:05:21.450Z,13.10
2019-01-26T03:07:52.114Z,11.93
2019-01-26T03:10:23.513Z,11.17
2019-01-26T03:12:54.102Z,11.03
2019-01-26T03:15:25.437Z,12.47
2019-01-26T03:17:55.658Z,13.20
2019-01-26T03:20:26.566Z,11.70
2019-01-26T03:22:56.752Z,11.57
2019-01-26T03:25:26.971Z,10.87
2019-01-26T03:27:57.171Z,12.13
2019-01-26T03:30:27.879Z,12.73
2019-01-26T03:32:58.105Z,12.03
2019-01-26T03:35:28.892Z,11.37
2019-01-26T03:37:59.495Z,11.30
2019-01-26T03:40:29.804Z,11.27
2019-01-26T03:43:00.096Z,12.40
2019-01-26T03:45:30.758Z,11.70
2019-01-26T03:48:00.971Z,12.20
2019-01-26T03:50:31.295Z,11.87
2019-01-26T03:53:01.523Z,11.53
2019-01-26T03:55:31.846Z,13.13
2019-01-26T03:58:02.149Z,12.73
2019-01-26T04:00:32.815Z,12.17
2019-01-26T04:03:03.118Z,12.50
2019-01-26T04:05:33.351Z,14.23
2019-01-26T04:08:03.594Z,15.50
2019-01-26T04:10:33.901Z,13.67
2019-01-26T04:13:04.106Z,14.87
2019-01-26T04:15:34.324Z,16.00
2019-01-26T04:18:05.853Z,15.40
2019-01-26T04:20:36.266Z,16.47
2019-01-26T04:23:06.559Z,15.53
2019-01-26T04:25:36.793Z,16.53
2019-01-26T04:28:07.078Z,19.00
2019-01-26T04:30:37.715Z,18.87
2019-01-26T04:33:07.985Z,18.40
2019-01-26T04:35:38.303Z,17.40
2019-01-26T04:38:08.533Z,17.27
2019-01-26T04:40:38.786Z,18.57
2019-01-26T04:43:08.947Z,18.43
2019-01-26T04:45:39.233Z,19.87
2019-01-26T04:48:09.419Z,19.23
2019-01-26T04:50:39.695Z,20.27
2019-01-26T04:53:09.924Z,20.20
2019-01-26T04:55:40.270Z,18.13
2019-01-26T04:58:10.525Z,19.27
2019-01-26T05:00:40.821Z,18.60
2019-01-26T05:03:11.218Z,20.07
2019-01-26T05:05:41.868Z,20.00
2019-01-26T05:08:12.361Z,17.77
2019-01-26T05:10:42.930Z,18.73
2019-01-26T05:13:13.214Z,17.83
2019-01-26T05:15:43.495Z,17.27
2019-01-26T05:18:13.778Z,17.30
2019-01-26T05:20:44.537Z,17.83
2019-01-26T05:23:14.753Z,16.73
2019-01-26T05:25:45.496Z,16.00
2019-01-26T05:28:15.690Z,15.37
2019-01-26T05:30:45.912Z,16.47
2019-01-26T05:33:16.466Z,15.13
2019-01-26T05:35:47.413Z,16.53
2019-01-26T05:38:17.644Z,15.53
2019-01-26T05:40:48.323Z,17.00
2019-01-26T05:43:18.625Z,16.00
2019-01-26T05:45:49.237Z,16.00
2019-01-26T05:48:19.865Z,17.47
2019-01-26T05:50:50.253Z,20.07
2019-01-26T05:53:20.539Z,17.37
2019-01-26T05:55:50.773Z,18.63
2019-01-26T05:58:21.053Z,17.57
2019-01-26T06:00:52.101Z,18.73
2019-01-26T06:03:22.695Z,19.33
2019-01-26T06:05:53.282Z,17.87
2019-01-26T06:08:23.595Z,18.40
2019-01-26T06:10:53.785Z,17.17
2019-01-26T06:13:24.007Z,17.30
2019-01-26T06:15:54.611Z,17.70
2019-01-26T06:18:24.877Z,17.97
2019-01-26T06:20:55.255Z,16.43
2019-01-26T06:23:25.508Z,17.47
2019-01-26T06:25:55.809Z,16.80
2019-01-26T06:28:26.026Z,18.23
2019-01-26T06:30:56.274Z,16.57
2019-01-26T06:33:26.514Z,16.60
2019-01-26T06:35:57.108Z,15.17
2019-01-26T06:38:27.359Z,15.23
2019-01-26T06:40:57.982Z,16.73
2019-01-26T06:43:28.261Z,16.67
2019-01-26T06:45:58.504Z,17.23
2019-01-26T06:48:29.085Z,16.63
2019-01-26T06:50:59.674Z,18.40
2019-01-26T06:53:29.914Z,16.60
2019-01-26T06:56:00.140Z,16.70
2019-01-26T06:58:30.346Z,17.33
2019-01-26T07:01:01.729Z,18.47
2019-01-26T07:03:31.956Z,17.13
2019-01-26T07:06:14.088Z,17.50
2019-01-26T07:08:44.368Z,17.37
2019-01-26T07:11:14.578Z,18.33
2019-01-26T07:13:44.798Z,18.03
2019-01-26T07:16:16.574Z,17.43
2019-01-26T07:18:46.692Z,17.53
2019-01-26T07:21:16.964Z,16.87
2019-01-26T07:23:47.238Z,16.50
2019-01-26T07:26:17.458Z,18.57
2019-01-26T07:28:47.673Z,18.97
2019-01-26T07:31:17.948Z,17.87
2019-01-26T07:33:48.200Z,18.17
2019-01-26T07:36:18.422Z,17.40
2019-01-26T07:38:48.952Z,17.43
2019-01-26T07:41:19.205Z,17.67
2019-01-26T07:43:49.791Z,17.80
2019-01-26T07:46:20.041Z,17.90
2019-01-26T07:48:50.298Z,15.20
2019-01-26T07:51:20.572Z,16.03
2019-01-26T07:53:51.136Z,15.77
2019-01-26T07:56:21.352Z,15.10
2019-01-26T07:58:52.335Z,15.83
2019-01-26T08:01:22.541Z,16.97
2019-01-26T08:03:53.037Z,16.03
2019-01-26T08:06:23.240Z,14.77
2019-01-26T08:08:53.814Z,16.47
2019-01-26T08:11:24.102Z,15.90
2019-01-26T08:13:54.340Z,15.60
2019-01-26T08:16:25.363Z,14.83
2019-01-26T08:18:55.981Z,16.73
2019-01-26T08:21:26.199Z,19.37
2019-01-26T08:23:56.442Z,17.40
2019-01-26T08:26:26.651Z,18.43
2019-01-26T08:28:56.908Z,18.30
2019-01-26T08:31:27.134Z,17.20
2019-01-26T08:33:57.289Z,17.00
2019-01-26T08:36:28.898Z,16.47
2019-01-26T08:38:59.117Z,16.07
2019-01-26T08:41:29.299Z,15.50
2019-01-26T08:43:59.587Z,15.40
2019-01-26T08:46:30.106Z,14.47
2019-01-26T08:49:00.413Z,14.30
2019-01-26T08:51:30.632Z,13.20
2019-01-26T08:54:00.887Z,13.50
2019-01-26T08:56:31.089Z,15.20
2019-01-26T08:59:01.309Z,12.97
2019-01-26T09:01:31.623Z,13.73
2019-01-26T09:04:15.703Z,12.93
2019-01-26T09:06:52.303Z,13.93
2019-01-26T09:09:22.567Z,12.63
2019-01-26T09:11:52.807Z,13.67
2019-01-26T09:14:23.043Z,12.17
2019-01-26T09:16:53.323Z,12.37
2019-01-26T09:19:23.970Z,13.30
2019-01-26T09:21:54.208Z,12.10
2019-01-26T09:24:24.403Z,12.87
2019-01-26T09:26:54.628Z,10.73
2019-01-26T09:29:24.882Z,12.10
2019-01-26T09:31:55.226Z,11.40
2019-01-26T09:34:25.522Z,10.90
2019-01-26T09:36:55.884Z,10.80
2019-01-26T09:39:26.088Z,10.50
2019-01-26T09:41:56.348Z,10.40
2019-01-26T09:44:27.737Z,9.77
2019-01-26T09:46:58.334Z,9.77
2019-01-26T09:49:28.614Z,8.90
2019-01-26T09:51:58.853Z,9.67
2019-01-26T09:54:29.108Z,8.27
2019-01-26T09:56:59.342Z,7.63
2019-01-26T09:59:29.524Z,7.53
2019-01-26T10:01:59.694Z,7.80
2019-01-26T10:04:31.015Z,7.33
2019-01-26T10:07:01.282Z,7.10
2019-01-26T10:09:32.714Z,7.30
2019-01-26T10:12:03.044Z,7.50
2019-01-26T10:14:33.328Z,8.17
2019-01-26T10:17:03.470Z,7.40
2019-01-26T10:19:33.676Z,7.70
2019-01-26T10:22:04.071Z,6.97
2019-01-26T10:24:34.235Z,7.80
2019-01-26T10:27:05.060Z,7.67
2019-01-26T10:29:35.297Z,8.20
2019-01-26T10:32:05.545Z,7.70
2019-01-26T10:34:36.144Z,7.57
2019-01-26T10:37:12.689Z,7.27
2019-01-26T10:39:42.843Z,6.47
2019-01-26T10:42:30.112Z,6.70
2019-01-26T10:45:00.391Z,6.27
2019-01-26T10:47:30.883Z,6.63
2019-01-26T10:50:01.151Z,5.53
2019-01-26T10:52:31.531Z,6.03
2019-01-26T10:55:01.754Z,5.97
2019-01-26T10:57:32.088Z,5.83
2019-01-26T11:00:02.805Z,6.67
2019-01-26T11:02:33.321Z,6.63
2019-01-26T11:05:03.773Z,6.77
2019-01-26T11:07:33.985Z,6.87
2019-01-26T11:10:05.091Z,7.90
2019-01-26T11:12:35.335Z,7.10
2019-01-26T11:15:06.207Z,7.03
2019-01-26T11:17:36.448Z,7.53
2019-01-26T11:20:08.057Z,6.83
2019-01-26T11:22:38.369Z,6.30
2019-01-26T11:25:09.593Z,6.13
2019-01-26T11:27:39.846Z,6.30
2019-01-26T11:30:10.613Z,5.87
2019-01-26T11:32:41.123Z,5.17
2019-01-26T11:35:12.086Z,4.50
2019-01-26T11:37:42.286Z,4.40
2019-01-26T11:40:21.792Z,4.83
2019-01-26T11:42:52.573Z,4.40
2019-01-26T11:45:38.601Z,4.17
2019-01-26T11:48:15.864Z,4.87
2019-01-26T11:50:49.489Z,4.90
2019-01-26T11:53:19.617Z,5.13
2019-01-26T11:56:07.004Z,5.13
2019-01-26T11:58:37.705Z,5.03
2019-01-26T12:01:39.318Z,5.23
2019-01-26T12:04:16.209Z,5.63
2019-01-26T12:06:54.640Z,5.83
2019-01-26T12:09:24.918Z,6.33
2019-01-26T12:11:55.420Z,6.53
2019-01-26T12:14:25.601Z,5.70
2019-01-26T12:16:59.260Z,5.87
2019-01-26T12:19:29.575Z,6.40
2019-01-26T12:21:59.839Z,5.87
2019-01-26T12:24:30.092Z,6.60
2019-01-26T12:27:00.399Z,6.00
2019-01-26T12:29:30.639Z,6.00
2019-01-26T12:32:01.147Z,6.43
2019-01-26T12:34:31.697Z,6.20
2019-01-26T12:37:01.882Z,6.30
2019-01-26T12:39:32.609Z,6.53
2019-01-26T12:42:02.885Z,6.37
2019-01-26T12:44:33.119Z,6.27
2019-01-26T12:47:03.655Z,6.13
2019-01-26T12:49:33.864Z,5.93
2019-01-26T12:52:04.207Z,5.30
2019-01-26T12:54:35.639Z,5.90
2019-01-26T12:57:18.032Z,5.70
2019-01-26T12:59:49.243Z,5.53
2019-01-26T13:02:19.609Z,5.57
2019-01-26T13:04:50.325Z,5.40
2019-01-26T13:07:20.948Z,4.70
2019-01-26T13:09:51.504Z,4.47
2019-01-26T13:12:21.751Z,4.37
2019-01-26T13:14:52.071Z,4.10
2019-01-26T13:17:22.888Z,4.50
2019-01-26T13:19:53.510Z,4.30
2019-01-26T13:22:23.725Z,4.20
2019-01-26T13:24:54.258Z,4.87
2019-01-26T13:27:24.455Z,4.80
2019-01-26T13:29:55.258Z,4.67
2019-01-26T13:32:25.849Z,5.00
2019-01-26T13:34:56.076Z,4.80
2019-01-26T13:37:26.286Z,4.73
2019-01-26T13:39:57.058Z,4.50
2019-01-26T13:42:27.354Z,4.37
2019-01-26T13:44:57.582Z,4.60
2019-01-26T13:47:27.818Z,4.53
2019-01-26T13:49:58.061Z,4.97
2019-01-26T13:52:28.485Z,5.30
2019-01-26T13:54:58.716Z,5.07
2019-01-26T13:57:29.304Z,5.07
2019-01-26T14:00:00.264Z,4.93
2019-01-26T14:02:30.880Z,5.40
2019-01-26T14:05:01.099Z,5.23
2019-01-26T14:07:31.755Z,5.30
2019-01-26T14:10:02.056Z,5.57
2019-01-26T14:12:32.678Z,5.10
2019-01-26T14:15:03.033Z,5.60
2019-01-26T14:17:33.263Z,5.23
2019-01-26T14:20:04.266Z,4.17
2019-01-26T14:22:34.461Z,4.50
2019-01-26T14:25:05.325Z,4.50
2019-01-26T14:27:35.515Z,4.50
2019-01-26T14:30:09.774Z,5.07
2019-01-26T14:32:40.726Z,5.07
2019-01-26T14:35:11.249Z,4.27
2019-01-26T14:37:41.383Z,4.67
2019-01-26T14:40:12.019Z,4.70
2019-01-26T14:42:42.250Z,4.17
2019-01-26T14:45:13.972Z,4.10
2019-01-26T14:47:45.241Z,4.37
2019-01-26T14:50:15.908Z,4.63
2019-01-26T14:52:47.344Z,4.13
2019-01-26T14:55:19.426Z,4.23
2019-01-26T14:57:50.580Z,4.27
2019-01-26T15:00:24.190Z,3.97
2019-01-26T15:02:54.396Z,4.13
2019-01-26T15:05:25.107Z,3.80
2019-01-26T15:07:55.403Z,4.60
2019-01-26T15:10:25.545Z,3.63
2019-01-26T15:12:56.421Z,3.30
2019-01-26T15:15:26.719Z,3.37
2019-01-26T15:17:57.010Z,2.73
2019-01-26T15:20:32.868Z,3.00
2019-01-26T15:23:03.462Z,2.60
2019-01-26T15:25:33.704Z,2.33
2019-01-26T15:28:04.143Z,2.70
2019-01-26T15:30:36.885Z,2.50
2019-01-26T15:33:08.005Z,2.70
2019-01-26T15:35:39.152Z,2.67
2019-01-26T15:38:10.945Z,2.40
2019-01-26T15:40:41.143Z,2.33
2019-01-26T15:43:11.367Z,2.43
2019-01-26T15:45:44.188Z,2.63
2019-01-26T15:48:14.431Z,2.90
2019-01-26T15:50:46.427Z,3.23
2019-01-26T15:53:17.026Z,2.87
2019-01-26T15:55:47.302Z,3.33
2019-01-26T15:58:17.698Z,3.10
2019-01-26T16:00:47.947Z,2.93
2019-01-26T16:03:18.572Z,3.03
2019-01-26T16:05:49.570Z,2.90
2019-01-26T16:08:19.750Z,3.60
2019-01-26T16:10:50.043Z,3.40
2019-01-26T16:13:20.586Z,3.80
2019-01-26T16:15:51.191Z,3.97
2019-01-26T16:18:21.852Z,3.70
2019-01-26T16:20:52.063Z,3.70
2019-01-26T16:23:22.720Z,4.17
2019-01-26T16:25:53.320Z,4.00
2019-01-26T16:28:23.630Z,4.33
2019-01-26T16:30:53.930Z,5.03
2019-01-26T16:33:24.611Z,5.37
2019-01-26T16:35:54.943Z,5.60
2019-01-26T16:38:25.085Z,6.47
2019-01-26T16:40:55.455Z,6.60
2019-01-26T16:43:26.391Z,7.13
2019-01-26T16:45:56.713Z,6.77
2019-01-26T16:48:27.334Z,6.97
2019-01-26T16:50:57.552Z,7.27
2019-01-26T16:53:27.848Z,7.07
2019-01-26T16:55:58.092Z,7.33
2019-01-26T16:58:28.279Z,7.43
2019-01-26T17:01:00.851Z,6.53
2019-01-26T17:03:31.356Z,8.20
2019-01-26T17:06:01.807Z,7.47
2019-01-26T17:08:31.997Z,7.80
2019-01-26T17:11:02.366Z,8.37
2019-01-26T17:13:33.613Z,8.80
2019-01-26T17:16:04.054Z,8.70
2019-01-26T17:18:34.376Z,10.33
2019-01-26T17:21:04.953Z,9.20
2019-01-26T17:23:36.197Z,9.17
2019-01-26T17:26:07.034Z,8.60
2019-01-26T17:28:37.338Z,8.53
2019-01-26T17:31:07.623Z,8.60
2019-01-26T17:33:38.475Z,8.60
2019-01-26T17:36:09.074Z,8.87
2019-01-26T17:38:39.428Z,8.40
2019-01-26T17:41:09.656Z,8.77
2019-01-26T17:43:40.835Z,8.10
2019-01-26T17:46:11.114Z,8.40
2019-01-26T17:48:41.451Z,7.83
2019-01-26T17:51:11.972Z,7.60
2019-01-26T17:53:42.204Z,7.60
2019-01-26T17:56:12.568Z,7.60
2019-01-26T17:58:43.179Z,7.13
2019-01-26T18:01:15.214Z,7.37
2019-01-26T18:03:45.677Z,7.20
2019-01-26T18:06:16.208Z,6.80
2019-01-26T18:08:46.505Z,7.03
2019-01-26T18:11:16.792Z,6.73
2019-01-26T18:13:47.058Z,7.10
2019-01-26T18:16:17.286Z,6.40
2019-01-26T18:18:47.469Z,6.47
2019-01-26T18:21:17.781Z,6.60
2019-01-26T18:23:48.022Z,6.40
2019-01-26T18:26:18.252Z,5.87
2019-01-26T18:28:48.444Z,6.87
2019-01-26T18:31:19.663Z,6.10
2019-01-26T18:33:50.496Z,6.60
2019-01-26T18:36:20.716Z,6.03
2019-01-26T18:38:51.376Z,6.40
2019-01-26T18:41:24.535Z,6.23
2019-01-26T18:43:55.882Z,6.30
2019-01-26T18:46:26.061Z,6.13
2019-01-26T18:48:56.284Z,6.90
2019-01-26T18:51:26.496Z,6.00
2019-01-26T18:53:56.962Z,5.97
2019-01-26T18:56:27.185Z,5.97
2019-01-26T18:58:57.445Z,6.03
2019-01-26T19:01:27.821Z,5.40
2019-01-26T19:04:26.470Z,5.73
2019-01-26T19:06:56.843Z,5.17
2019-01-26T19:09:27.094Z,5.03
2019-01-26T19:11:57.506Z,5.10
2019-01-26T19:14:27.774Z,5.20
2019-01-26T19:16:58.116Z,4.90
2019-01-26T19:19:28.394Z,5.23
2019-01-26T19:21:58.635Z,4.83
2019-01-26T19:24:29.208Z,4.90
2019-01-26T19:26:59.761Z,4.30
2019-01-26T19:29:30.062Z,4.40
2019-01-26T19:32:00.471Z,4.77
2019-01-26T19:34:30.780Z,3.90
2019-01-26T19:37:01.460Z,3.60
2019-01-26T19:39:32.963Z,4.07
2019-01-26T19:42:03.227Z,3.83
2019-01-26T19:44:33.765Z,3.70
2019-01-26T19:47:04.059Z,3.83
2019-01-26T19:49:34.319Z,4.03
2019-01-26T19:52:04.879Z,3.07
2019-01-26T19:54:35.123Z,3.57
2019-01-26T19:57:06.832Z,3.63
2019-01-26T19:59:37.118Z,3.20
2019-01-26T20:02:07.471Z,3.30
2019-01-26T20:04:37.857Z,3.30
2019-01-26T20:07:08.215Z,3.20
2019-01-26T20:09:38.521Z,3.30
2019-01-26T20:12:09.336Z,3.10
2019-01-26T20:14:39.491Z,2.90
2019-01-26T20:17:10.115Z,2.80
2019-01-26T20:19:40.337Z,3.07
2019-01-26T20:22:10.757Z,2.33
2019-01-26T20:24:41.307Z,2.80
2019-01-26T20:27:11.585Z,2.80
2019-01-26T20:29:41.854Z,2.80
2019-01-26T20:32:12.519Z,3.10
2019-01-26T20:34:42.784Z,2.37
2019-01-26T20:37:13.198Z,2.70
2019-01-26T20:39:43.492Z,2.90
2019-01-26T20:42:13.791Z,2.90
2019-01-26T20:44:43.889Z,2.53
2019-01-26T20:47:14.177Z,2.47
2019-01-26T20:49:44.614Z,2.97
2019-01-26T20:52:15.842Z,3.00
2019-01-26T20:54:46.157Z,2.83
2019-01-26T20:57:16.797Z,2.87
2019-01-26T20:59:47.102Z,3.20
2019-01-26T21:02:17.780Z,3.00
2019-01-26T21:04:48.071Z,2.67
2019-01-26T21:07:21.400Z,3.20
2019-01-26T21:09:53.774Z,2.90
2019-01-26T21:12:24.458Z,3.20
2019-01-26T21:14:54.645Z,2.80
2019-01-26T21:17:25.947Z,2.97
2019-01-26T21:19:56.240Z,3.17
2019-01-26T21:22:26.466Z,3.40
2019-01-26T21:24:56.648Z,3.23
2019-01-26T21:27:27.074Z,3.10
2019-01-26T21:29:57.292Z,3.67
2019-01-26T21:32:27.890Z,3.70
2019-01-26T21:34:58.097Z,3.63
2019-01-26T21:37:28.180Z,3.33
2019-01-26T21:39:58.506Z,3.33
2019-01-26T21:42:28.795Z,3.47
2019-01-26T21:44:59.079Z,3.80
2019-01-26T21:47:29.223Z,3.40
2019-01-26T21:49:59.436Z,3.57
2019-01-26T21:52:29.617Z,3.40
2019-01-26T21:55:00.194Z,3.73
2019-01-26T21:57:30.435Z,3.50
2019-01-26T22:00:00.616Z,3.57
2019-01-26T22:02:31.571Z,3.53
2019-01-26T22:05:01.752Z,4.13
2019-01-26T22:07:32.069Z,4.63
2019-01-26T22:10:02.246Z,3.77
2019-01-26T22:12:32.648Z,4.27
2019-01-26T22:15:02.888Z,4.57
2019-01-26T22:17:33.329Z,3.97
2019-01-26T22:20:03.672Z,4.57
2019-01-26T22:22:35.011Z,4.40
2019-01-26T22:25:06.932Z,4.27
2019-01-26T22:27:37.057Z,4.30
2019-01-26T22:30:11.385Z,4.10
2019-01-26T22:32:41.675Z,4.40
2019-01-26T22:35:11.907Z,4.33
2019-01-26T22:37:42.561Z,4.40
2019-01-26T22:40:17.299Z,4.67
2019-01-26T22:42:47.786Z,4.37
2019-01-26T22:45:18.685Z,4.47
2019-01-26T22:47:49.031Z,3.90
2019-01-26T22:50:20.198Z,4.20
2019-01-26T22:52:50.926Z,3.87
2019-01-26T22:55:21.594Z,3.97
2019-01-26T22:57:52.143Z,4.60
2019-01-26T23:00:52.558Z,4.40
2019-01-26T23:03:35.862Z,4.50
2019-01-26T23:06:33.841Z,4.40
2019-01-26T23:09:30.000Z,4.30
2019-01-26T23:12:31.410Z,4.10
2019-01-26T23:15:40.933Z,4.00
2019-01-26T23:18:31.700Z,3.70
2019-01-26T23:21:30.853Z,3.77
2019-01-26T23:24:41.407Z,3.70
2019-01-26T23:27:35.774Z,3.77
2019-01-26T23:30:54.669Z,3.13
2019-01-26T23:33:25.230Z,2.83
2019-01-26T23:35:55.809Z,3.03
2019-01-26T23:38:26.019Z,3.30
2019-01-26T23:40:56.203Z,2.53
2019-01-26T23:43:27.119Z,3.07
2019-01-26T23:45:57.619Z,2.93
2019-01-26T23:48:28.047Z,3.07
2019-01-26T23:50:58.316Z,3.10
2019-01-26T23:53:28.880Z,3.10
2019-01-26T23:55:59.047Z,3.17
2019-01-26T23:58:29.209Z,2.70
